| time (UTC) | temp F | wind direction | speed knots | gust knots | rain 1hr in | rain 24hr in | rain mn in | humidity % | barometer mb |
| 20260507155004 | 55 | 195 | 4.3 | 7.0 | 0.00 | 0.00 | 0.00 | 64 | 1016.9 |
| 20260507154005 | 55 | 203 | 1.7 | 4.3 | 0.00 | 0.00 | 0.00 | 65 | 1016.9 |
| 20260507153004 | 55 | 324 | 0.9 | 5.2 | 0.00 | 0.00 | 0.00 | 66 | 1016.6 |
| 20260507152004 | 55 | 256 | 1.7 | 5.2 | 0.00 | 0.00 | 0.00 | 66 | 1016.6 |
| 20260507143004 | 58 | 166 | 0.9 | 5.2 | 0.00 | 0.00 | 0.00 | 60 | 1016.6 |
| 20260507142004 | 58 | 214 | 1.7 | 2.6 | 0.00 | 0.00 | 0.00 | 58 | 1016.6 |
| 20260507141004 | 57 | 335 | 0.0 | 2.6 | 0.00 | 0.00 | 0.00 | 62 | 1016.6 |
| 20260507140005 | 57 | 357 | 0.9 | 2.6 | 0.00 | 0.00 | 0.00 | 58 | 1016.6 |
| 20260507135004 | 58 | 320 | 0.9 | 7.8 | 0.00 | 0.00 | 0.00 | 57 | 1016.6 |
| 20260507134004 | 56 | 6 | 3.5 | 7.8 | 0.00 | 0.00 | 0.00 | 59 | 1016.6 |
| 20260507133005 | 60 | 358 | 2.6 | 8.7 | 0.00 | 0.00 | 0.00 | 56 | 1016.6 |
| 20260507132004 | 57 | 13 | 1.7 | 7.8 | 0.00 | 0.00 | 0.00 | 59 | 1016.6 |
| 20260507125004 | 58 | 127 | 1.7 | 5.2 | 0.00 | 0.00 | 0.00 | 64 | 1016.3 |
| 20260507123004 | 59 | 354 | 0.9 | 4.3 | 0.00 | 0.00 | 0.00 | 59 | 1016.3 |
| 20260507121004 | 56 | 349 | 1.7 | 4.3 | 0.00 | 0.00 | 0.00 | 66 | 1016.6 |
| 20260507120005 | 56 | 238 | 2.6 | 5.2 | 0.00 | 0.00 | 0.00 | 66 | 1016.3 |
| 20260507115004 | 57 | 205 | 1.7 | 7.8 | 0.00 | 0.00 | 0.00 | 64 | 1016.3 |
| 20260507113004 | 56 | 201 | 2.6 | 6.1 | 0.00 | 0.00 | 0.00 | 62 | 1016.6 |
| 20260507111004 | 57 | 226 | 8.7 | 12.2 | 0.00 | 0.00 | 0.00 | 62 | 1016.6 |
| 20260507110005 | 60 | 194 | 6.1 | 7.8 | 0.00 | 0.00 | 0.00 | 62 | 1016.6 |
| 20260507105004 | 57 | 327 | 1.7 | 4.3 | 0.00 | 0.00 | 0.00 | 62 | 1016.6 |
| 20260507103004 | 56 | 234 | 2.6 | 7.0 | 0.00 | 0.00 | 0.00 | 67 | 1016.6 |
| 20260507101004 | 53 | 334 | 1.7 | 4.3 | 0.00 | 0.00 | 0.00 | 71 | 1016.6 |
| 20260507100005 | 55 | 161 | 2.6 | 7.0 | 0.00 | 0.00 | 0.00 | 68 | 1016.7 |
| 20260507092004 | 56 | 177 | 4.3 | 7.0 | 0.00 | 0.00 | 0.00 | 67 | 1016.3 |
| 20260507091004 | 54 | 334 | 1.7 | 5.2 | 0.00 | 0.00 | 0.00 | 67 | 1016.3 |
| 20260507090005 | 56 | 183 | 2.6 | 5.2 | 0.00 | 0.00 | 0.00 | 68 | 1016.3 |
| 20260507085004 | 54 | 211 | 4.3 | 7.8 | 0.00 | 0.00 | 0.00 | 73 | 1016.3 |
| 20260507082004 | 53 | 7 | 1.7 | 4.3 | 0.00 | 0.00 | 0.00 | 76 | 1015.9 |
| 20260507080005 | 51 | 355 | 1.7 | 2.6 | 0.00 | 0.00 | 0.00 | 77 | 1015.6 |
| 20260507075004 | 51 | 174 | 1.7 | 4.3 | 0.00 | 0.00 | 0.00 | 80 | 1015.6 |
| 20260507074004 | 52 | 294 | 1.7 | 7.0 | 0.00 | 0.00 | 0.00 | 79 | 1015.6 |
| 20260507073004 | 51 | 168 | 6.1 | 7.8 | 0.00 | 0.00 | 0.00 | 80 | 1015.6 |
| 20260507072004 | 50 | 355 | 0.9 | 5.2 | 0.00 | 0.00 | 0.00 | 82 | 1015.6 |
| 20260507071004 | 49 | 184 | 1.7 | 7.0 | 0.00 | 0.00 | 0.00 | 84 | 1015.6 |
| 20260507070009 | 49 | 193 | 5.2 | 7.0 | 0.00 | 0.00 | 0.00 | 85 | 1015.6 |
| 20260507063008 | 47 | 234 | 1.7 | 5.2 | 0.00 | 0.00 | 0.00 | 87 | 1015.6 |
| 20260507061004 | 46 | 204 | 2.6 | 5.2 | 0.00 | 0.00 | 0.00 | 90 | 1015.6 |
| 20260507060004 | 45 | 207 | 0.0 | 2.6 | 0.00 | 0.00 | 0.00 | 91 | 1015.6 |
| 20260507053005 | 46 | 294 | 0.9 | 5.2 | 0.00 | 0.00 | 0.00 | 92 | 1015.0 |
| 20260507050005 | 44 | 332 | 1.7 | 5.2 | 0.00 | 0.00 | 0.00 | 93 | 1014.6 |
| 20260507044004 | 44 | 306 | 2.6 | 4.3 | 0.00 | 0.00 | 0.00 | 94 | 1014.6 |
| 20260507043004 | 44 | 307 | 1.7 | 1.7 | 0.00 | 0.00 | 0.00 | 94 | 1014.6 |
| 20260507041004 | 44 | 334 | 1.7 | 5.2 | 0.00 | 0.00 | 0.00 | 94 | 1014.2 |
| 20260507034004 | 44 | 233 | 1.7 | 5.2 | 0.00 | 0.01 | 0.00 | 96 | 1013.9 |
| 20260507033004 | 44 | 275 | 1.7 | 5.2 | 0.00 | 0.01 | 0.00 | 96 | 1013.9 |
| 20260507025004 | 45 | 331 | 0.9 | 2.6 | 0.00 | 0.01 | 0.00 | 95 | 1013.5 |
| 20260507024004 | 45 | 271 | 1.7 | 2.6 | 0.00 | 0.01 | 0.00 | 95 | 1013.9 |
| 20260507023004 | 45 | 242 | 0.9 | 4.3 | 0.00 | 0.01 | 0.00 | 95 | 1013.5 |
| 20260507022004 | 46 | 188 | 0.9 | 5.2 | 0.00 | 0.01 | 0.00 | 95 | 1013.5 |
| 20260507014004 | 46 | 299 | 1.7 | 4.3 | 0.00 | 0.01 | 0.00 | 95 | 1013.5 |
| 20260507013004 | 46 | 216 | 1.7 | 2.6 | 0.00 | 0.01 | 0.00 | 95 | 1013.5 |
| 20260507012004 | 47 | 304 | 0.9 | 2.6 | 0.00 | 0.01 | 0.00 | 95 | 1013.5 |
| 20260507011004 | 47 | 192 | 1.7 | 4.3 | 0.00 | 0.01 | 0.00 | 95 | 1013.2 |
| 20260507010005 | 47 | 332 | 1.7 | 4.3 | 0.00 | 0.01 | 0.00 | 95 | 1013.2 |
| 20260507004004 | 47 | 345 | 0.0 | 2.6 | 0.00 | 0.01 | 0.00 | 95 | 1013.2 |
| 20260507001004 | 48 | 320 | 0.9 | 2.6 | 0.00 | 0.01 | 0.00 | 95 | 1013.2 |
| 20260507000004 | 48 | 205 | 1.7 | 4.3 | 0.00 | 0.01 | 0.00 | 95 | 1013.2 |
| 20260506234004 | 48 | 258 | 2.6 | 7.0 | 0.00 | 0.01 | 0.01 | 95 | 1013.2 |
| 20260506233004 | 48 | 344 | 1.7 | 5.2 | 0.00 | 0.01 | 0.01 | 95 | 1013.2 |
| 20260506232004 | 48 | 209 | 1.7 | 7.0 | 0.00 | 0.01 | 0.01 | 95 | 1013.2 |
| 20260506230004 | 48 | 201 | 2.6 | 5.2 | 0.00 | 0.01 | 0.01 | 94 | 1012.9 |
| 20260506225004 | 49 | 212 | 2.6 | 7.0 | 0.00 | 0.01 | 0.01 | 94 | 1012.9 |
| 20260506224004 | 49 | 335 | 1.7 | 4.3 | 0.00 | 0.01 | 0.01 | 94 | 1012.9 |
| 20260506222004 | 49 | 222 | 1.7 | 4.3 | 0.00 | 0.01 | 0.01 | 94 | 1012.9 |
| 20260506220004 | 49 | 181 | 1.7 | 6.1 | 0.00 | 0.01 | 0.01 | 95 | 1012.5 |
| 20260506215006 | 49 | 290 | 2.6 | 7.0 | 0.00 | 0.01 | 0.01 | 94 | 1012.2 |
| 20260506214004 | 49 | 227 | 1.7 | 6.1 | 0.00 | 0.01 | 0.01 | 93 | 1012.2 |
| 20260506212043 | 49 | 315 | 0.9 | 0.9 | 0.00 | 0.01 | 0.01 | 90 | 1011.9 |
| 20260506211004 | 49 | 322 | 0.0 | 0.9 | 0.00 | 0.01 | 0.01 | 90 | 1011.5 |
| 20260506210004 | 49 | 345 | 0.0 | 2.6 | 0.00 | 0.01 | 0.01 | 91 | 1011.5 |
| 20260506205004 | 49 | 236 | 1.7 | 2.6 | 0.00 | 0.02 | 0.01 | 92 | 1011.9 |
| 20260506203004 | 50 | 7 | 0.9 | 1.7 | 0.00 | 0.02 | 0.01 | 91 | 1011.2 |
| 20260506202004 | 51 | 329 | 0.9 | 1.7 | 0.00 | 0.02 | 0.01 | 89 | 1011.2 |
| 20260506195004 | 52 | 36 | 0.9 | 4.3 | 0.00 | 0.02 | 0.01 | 82 | 1010.8 |
| 20260506194004 | 53 | 143 | 2.6 | 4.3 | 0.00 | 0.02 | 0.01 | 83 | 1010.8 |
| 20260506193004 | 53 | 99 | 1.7 | 6.1 | 0.00 | 0.02 | 0.01 | 82 | 1010.7 |
| 20260506192004 | 54 | 194 | 0.9 | 4.3 | 0.00 | 0.02 | 0.01 | 80 | 1010.5 |
| 20260506190005 | 59 | 328 | 0.9 | 2.6 | 0.00 | 0.02 | 0.01 | 58 | 1009.8 |
| 20260506185004 | 59 | 333 | 2.6 | 6.1 | 0.00 | 0.02 | 0.01 | 57 | 1009.5 |
| 20260506184004 | 60 | 191 | 4.3 | 7.0 | 0.00 | 0.02 | 0.01 | 55 | 1009.5 |
| 20260506183005 | 60 | 262 | 4.3 | 7.0 | 0.00 | 0.02 | 0.01 | 55 | 1009.1 |
| 20260506182004 | 60 | 201 | 2.6 | 5.2 | 0.00 | 0.02 | 0.01 | 56 | 1008.5 |
| 20260506175004 | 62 | 275 | 2.6 | 4.3 | 0.00 | 0.02 | 0.01 | 52 | 1008.8 |
| 20260506171004 | 64 | 209 | 2.6 | 5.2 | 0.00 | 0.02 | 0.01 | 49 | 1008.5 |
| 20260506170004 | 64 | 210 | 4.3 | 5.2 | 0.00 | 0.02 | 0.01 | 48 | 1008.5 |
| 20260506164004 | 64 | 238 | 4.3 | 8.7 | 0.00 | 0.02 | 0.01 | 47 | 1008.5 |
| 20260506163004 | 65 | 204 | 6.1 | 8.7 | 0.00 | 0.02 | 0.01 | 48 | 1008.8 |
| 20260506162004 | 65 | 221 | 2.6 | 2.6 | 0.00 | 0.02 | 0.01 | 50 | 1008.8 |
| 20260506161004 | 66 | 208 | 1.7 | 5.2 | 0.00 | 0.02 | 0.01 | 50 | 1008.8 |
| 20260506160005 | 66 | 233 | 2.6 | 4.3 | 0.00 | 0.02 | 0.01 | 48 | 1008.8 |